sensor_id;sensor_type;location;lat;lon;timestamp;temperature;humidity
14370;DHT22;7268;50.792;0.252;2023-07-13T00:00:26;16.30;99.90
14370;DHT22;7268;50.792;0.252;2023-07-13T00:02:53;16.30;99.90
14370;DHT22;7268;50.792;0.252;2023-07-13T00:05:22;16.20;99.90
14370;DHT22;7268;50.792;0.252;2023-07-13T00:07:52;16.20;99.90
14370;DHT22;7268;50.792;0.252;2023-07-13T00:10:21;16.20;99.90
14370;DHT22;7268;50.792;0.252;2023-07-13T00:12:48;16.10;99.90
14370;DHT22;7268;50.792;0.252;2023-07-13T00:15:24;16.20;99.90
14370;DHT22;7268;50.792;0.252;2023-07-13T00:17:53;16.20;99.90
14370;DHT22;7268;50.792;0.252;2023-07-13T00:20:22;16.20;99.90
14370;DHT22;7268;50.792;0.252;2023-07-13T00:22:49;16.20;99.90
14370;DHT22;7268;50.792;0.252;2023-07-13T00:25:16;16.20;99.90
14370;DHT22;7268;50.792;0.252;2023-07-13T00:27:44;16.20;99.90
14370;DHT22;7268;50.792;0.252;2023-07-13T00:30:11;16.10;99.90
14370;DHT22;7268;50.792;0.252;2023-07-13T00:32:38;16.10;99.90
14370;DHT22;7268;50.792;0.252;2023-07-13T00:35:06;16.10;99.90
14370;DHT22;7268;50.792;0.252;2023-07-13T00:37:34;16.20;99.90
14370;DHT22;7268;50.792;0.252;2023-07-13T00:40:03;16.20;99.90
14370;DHT22;7268;50.792;0.252;2023-07-13T00:42:31;16.20;99.90
14370;DHT22;7268;50.792;0.252;2023-07-13T00:47:40;16.10;99.90
14370;DHT22;7268;50.792;0.252;2023-07-13T00:50:10;16.10;99.90
14370;DHT22;7268;50.792;0.252;2023-07-13T00:52:41;16.10;99.90
14370;DHT22;7268;50.792;0.252;2023-07-13T00:55:11;16.00;99.90
14370;DHT22;7268;50.792;0.252;2023-07-13T00:57:40;16.10;99.90
14370;DHT22;7268;50.792;0.252;2023-07-13T01:00:08;16.00;99.90
14370;DHT22;7268;50.792;0.252;2023-07-13T01:02:38;16.00;99.90
14370;DHT22;7268;50.792;0.252;2023-07-13T01:05:32;16.00;99.90
14370;DHT22;7268;50.792;0.252;2023-07-13T01:08:01;15.90;99.90
14370;DHT22;7268;50.792;0.252;2023-07-13T01:10:30;15.90;99.90
14370;DHT22;7268;50.792;0.252;2023-07-13T01:13:07;16.00;99.90
14370;DHT22;7268;50.792;0.252;2023-07-13T01:15:42;15.90;99.90
14370;DHT22;7268;50.792;0.252;2023-07-13T01:18:21;15.90;99.90
14370;DHT22;7268;50.792;0.252;2023-07-13T01:20:52;15.80;99.90
14370;DHT22;7268;50.792;0.252;2023-07-13T01:23:19;15.80;99.90
14370;DHT22;7268;50.792;0.252;2023-07-13T01:25:46;15.90;99.90
14370;DHT22;7268;50.792;0.252;2023-07-13T01:28:13;15.80;99.90
14370;DHT22;7268;50.792;0.252;2023-07-13T01:30:40;15.80;99.90
14370;DHT22;7268;50.792;0.252;2023-07-13T01:33:08;15.80;99.90
14370;DHT22;7268;50.792;0.252;2023-07-13T01:35:36;15.80;99.90
14370;DHT22;7268;50.792;0.252;2023-07-13T01:38:04;15.80;99.90
14370;DHT22;7268;50.792;0.252;2023-07-13T01:40:31;15.70;99.90
14370;DHT22;7268;50.792;0.252;2023-07-13T01:42:58;15.70;99.90
14370;DHT22;7268;50.792;0.252;2023-07-13T01:45:26;15.60;99.90
14370;DHT22;7268;50.792;0.252;2023-07-13T01:47:53;15.60;99.90
14370;DHT22;7268;50.792;0.252;2023-07-13T01:50:20;15.60;99.90
14370;DHT22;7268;50.792;0.252;2023-07-13T01:52:47;15.60;99.90
14370;DHT22;7268;50.792;0.252;2023-07-13T01:55:14;15.50;99.90
14370;DHT22;7268;50.792;0.252;2023-07-13T01:57:41;15.50;99.90
14370;DHT22;7268;50.792;0.252;2023-07-13T02:00:09;15.50;99.90
14370;DHT22;7268;50.792;0.252;2023-07-13T02:02:36;15.40;99.90
14370;DHT22;7268;50.792;0.252;2023-07-13T02:05:04;15.30;99.90
14370;DHT22;7268;50.792;0.252;2023-07-13T02:07:31;15.20;99.90
14370;DHT22;7268;50.792;0.252;2023-07-13T02:09:58;15.10;99.90
14370;DHT22;7268;50.792;0.252;2023-07-13T02:12:24;15.10;99.90
14370;DHT22;7268;50.792;0.252;2023-07-13T02:14:51;15.00;99.90
14370;DHT22;7268;50.792;0.252;2023-07-13T02:17:18;15.20;99.90
14370;DHT22;7268;50.792;0.252;2023-07-13T02:19:45;15.20;99.90
14370;DHT22;7268;50.792;0.252;2023-07-13T02:22:12;15.20;99.90
14370;DHT22;7268;50.792;0.252;2023-07-13T02:24:39;15.30;99.90
14370;DHT22;7268;50.792;0.252;2023-07-13T02:27:06;15.20;99.90
14370;DHT22;7268;50.792;0.252;2023-07-13T02:29:33;15.20;99.90
14370;DHT22;7268;50.792;0.252;2023-07-13T02:32:00;15.20;99.90
14370;DHT22;7268;50.792;0.252;2023-07-13T02:34:27;15.10;99.90
14370;DHT22;7268;50.792;0.252;2023-07-13T02:36:57;15.20;99.90
14370;DHT22;7268;50.792;0.252;2023-07-13T02:39:24;15.10;99.90
14370;DHT22;7268;50.792;0.252;2023-07-13T02:41:51;15.10;99.90
14370;DHT22;7268;50.792;0.252;2023-07-13T02:44:18;15.00;99.90
14370;DHT22;7268;50.792;0.252;2023-07-13T02:46:44;15.10;99.90
14370;DHT22;7268;50.792;0.252;2023-07-13T02:49:11;15.10;99.90
14370;DHT22;7268;50.792;0.252;2023-07-13T02:51:38;15.10;99.90
14370;DHT22;7268;50.792;0.252;2023-07-13T02:54:05;15.00;99.90
14370;DHT22;7268;50.792;0.252;2023-07-13T02:56:34;14.90;99.90
14370;DHT22;7268;50.792;0.252;2023-07-13T02:59:01;14.90;99.90
14370;DHT22;7268;50.792;0.252;2023-07-13T03:01:29;14.80;99.90
14370;DHT22;7268;50.792;0.252;2023-07-13T03:03:56;14.80;99.90
14370;DHT22;7268;50.792;0.252;2023-07-13T03:06:23;14.70;99.90
14370;DHT22;7268;50.792;0.252;2023-07-13T03:08:51;14.80;99.90
14370;DHT22;7268;50.792;0.252;2023-07-13T03:11:19;14.80;99.90
14370;DHT22;7268;50.792;0.252;2023-07-13T03:13:47;14.80;99.90
14370;DHT22;7268;50.792;0.252;2023-07-13T03:16:15;14.80;99.90
14370;DHT22;7268;50.792;0.252;2023-07-13T03:18:46;14.90;99.90
14370;DHT22;7268;50.792;0.252;2023-07-13T03:21:13;14.90;99.90
14370;DHT22;7268;50.792;0.252;2023-07-13T03:23:40;15.00;99.90
14370;DHT22;7268;50.792;0.252;2023-07-13T03:26:16;15.00;99.90
14370;DHT22;7268;50.792;0.252;2023-07-13T03:28:43;15.00;99.90
14370;DHT22;7268;50.792;0.252;2023-07-13T03:31:19;15.00;99.90
14370;DHT22;7268;50.792;0.252;2023-07-13T03:33:47;15.00;99.90
14370;DHT22;7268;50.792;0.252;2023-07-13T03:36:21;15.00;99.90
14370;DHT22;7268;50.792;0.252;2023-07-13T03:38:50;14.90;99.90
14370;DHT22;7268;50.792;0.252;2023-07-13T03:41:18;14.90;99.90
14370;DHT22;7268;50.792;0.252;2023-07-13T03:43:45;14.90;99.90
14370;DHT22;7268;50.792;0.252;2023-07-13T03:46:15;15.00;99.90
14370;DHT22;7268;50.792;0.252;2023-07-13T03:48:45;14.90;99.90
14370;DHT22;7268;50.792;0.252;2023-07-13T03:51:14;14.90;99.90
14370;DHT22;7268;50.792;0.252;2023-07-13T03:53:43;14.80;99.90
14370;DHT22;7268;50.792;0.252;2023-07-13T03:56:11;14.80;99.90
14370;DHT22;7268;50.792;0.252;2023-07-13T03:58:40;14.90;99.90
14370;DHT22;7268;50.792;0.252;2023-07-13T04:01:09;14.90;99.90
14370;DHT22;7268;50.792;0.252;2023-07-13T04:03:36;14.90;99.90
14370;DHT22;7268;50.792;0.252;2023-07-13T04:06:05;15.00;99.90
14370;DHT22;7268;50.792;0.252;2023-07-13T04:08:35;15.10;99.90
14370;DHT22;7268;50.792;0.252;2023-07-13T04:11:04;15.10;99.90
14370;DHT22;7268;50.792;0.252;2023-07-13T04:13:31;15.20;99.90
14370;DHT22;7268;50.792;0.252;2023-07-13T04:15:58;15.30;99.90
14370;DHT22;7268;50.792;0.252;2023-07-13T04:18:25;15.40;99.90
14370;DHT22;7268;50.792;0.252;2023-07-13T04:20:52;15.50;99.90
14370;DHT22;7268;50.792;0.252;2023-07-13T04:23:19;15.70;99.90
14370;DHT22;7268;50.792;0.252;2023-07-13T04:25:48;15.80;99.90
14370;DHT22;7268;50.792;0.252;2023-07-13T04:28:16;15.80;99.90
14370;DHT22;7268;50.792;0.252;2023-07-13T04:30:46;15.80;99.90
14370;DHT22;7268;50.792;0.252;2023-07-13T04:33:13;15.90;99.90
14370;DHT22;7268;50.792;0.252;2023-07-13T04:35:40;16.00;99.90
14370;DHT22;7268;50.792;0.252;2023-07-13T04:38:07;16.10;99.90
14370;DHT22;7268;50.792;0.252;2023-07-13T04:40:34;16.20;99.90
14370;DHT22;7268;50.792;0.252;2023-07-13T04:43:01;16.30;99.90
14370;DHT22;7268;50.792;0.252;2023-07-13T04:45:27;16.40;99.90
14370;DHT22;7268;50.792;0.252;2023-07-13T04:47:54;16.40;99.70
14370;DHT22;7268;50.792;0.252;2023-07-13T04:50:21;16.40;99.60
14370;DHT22;7268;50.792;0.252;2023-07-13T04:52:50;16.40;99.70
14370;DHT22;7268;50.792;0.252;2023-07-13T04:55:18;16.40;99.60
14370;DHT22;7268;50.792;0.252;2023-07-13T04:57:46;16.30;99.60
14370;DHT22;7268;50.792;0.252;2023-07-13T05:00:14;16.40;99.70
14370;DHT22;7268;50.792;0.252;2023-07-13T05:02:44;16.50;99.60
14370;DHT22;7268;50.792;0.252;2023-07-13T05:05:12;16.60;99.60
14370;DHT22;7268;50.792;0.252;2023-07-13T05:07:39;16.60;99.60
14370;DHT22;7268;50.792;0.252;2023-07-13T05:10:07;16.60;99.10
14370;DHT22;7268;50.792;0.252;2023-07-13T05:12:34;16.60;99.00
14370;DHT22;7268;50.792;0.252;2023-07-13T05:15:02;16.60;99.00
14370;DHT22;7268;50.792;0.252;2023-07-13T05:17:29;16.70;98.60
14370;DHT22;7268;50.792;0.252;2023-07-13T05:19:56;16.70;98.20
14370;DHT22;7268;50.792;0.252;2023-07-13T05:22:23;16.70;98.20
14370;DHT22;7268;50.792;0.252;2023-07-13T05:24:50;16.80;98.20
14370;DHT22;7268;50.792;0.252;2023-07-13T05:27:17;16.80;98.00
14370;DHT22;7268;50.792;0.252;2023-07-13T05:29:44;16.80;97.90
14370;DHT22;7268;50.792;0.252;2023-07-13T05:32:11;16.90;97.60
14370;DHT22;7268;50.792;0.252;2023-07-13T05:34:38;17.00;97.60
14370;DHT22;7268;50.792;0.252;2023-07-13T05:37:05;17.10;97.30
14370;DHT22;7268;50.792;0.252;2023-07-13T05:39:32;17.10;96.80
14370;DHT22;7268;50.792;0.252;2023-07-13T05:41:59;17.10;97.10
14370;DHT22;7268;50.792;0.252;2023-07-13T05:44:26;17.20;97.40
14370;DHT22;7268;50.792;0.252;2023-07-13T05:46:53;17.20;97.60
14370;DHT22;7268;50.792;0.252;2023-07-13T05:49:22;17.30;97.20
14370;DHT22;7268;50.792;0.252;2023-07-13T05:51:49;17.20;97.40
14370;DHT22;7268;50.792;0.252;2023-07-13T05:54:16;17.30;97.60
14370;DHT22;7268;50.792;0.252;2023-07-13T05:56:43;17.50;97.50
14370;DHT22;7268;50.792;0.252;2023-07-13T05:59:10;17.80;97.10
14370;DHT22;7268;50.792;0.252;2023-07-13T06:01:37;18.00;96.60
14370;DHT22;7268;50.792;0.252;2023-07-13T06:04:04;18.60;96.40
14370;DHT22;7268;50.792;0.252;2023-07-13T06:06:31;19.40;93.90
14370;DHT22;7268;50.792;0.252;2023-07-13T06:08:58;19.90;93.10
14370;DHT22;7268;50.792;0.252;2023-07-13T06:11:26;20.80;91.20
14370;DHT22;7268;50.792;0.252;2023-07-13T06:13:54;21.30;90.10
14370;DHT22;7268;50.792;0.252;2023-07-13T06:16:21;22.30;88.40
14370;DHT22;7268;50.792;0.252;2023-07-13T06:18:48;23.50;82.70
14370;DHT22;7268;50.792;0.252;2023-07-13T06:21:17;23.90;79.60
14370;DHT22;7268;50.792;0.252;2023-07-13T06:23:46;23.30;79.60
14370;DHT22;7268;50.792;0.252;2023-07-13T06:26:18;23.80;79.80
14370;DHT22;7268;50.792;0.252;2023-07-13T06:28:45;23.80;79.40
14370;DHT22;7268;50.792;0.252;2023-07-13T06:31:13;23.80;80.30
14370;DHT22;7268;50.792;0.252;2023-07-13T06:33:41;23.60;81.20
14370;DHT22;7268;50.792;0.252;2023-07-13T06:36:08;22.90;82.30
14370;DHT22;7268;50.792;0.252;2023-07-13T06:38:36;22.80;81.80
14370;DHT22;7268;50.792;0.252;2023-07-13T06:41:05;22.90;81.40
14370;DHT22;7268;50.792;0.252;2023-07-13T06:43:32;23.30;79.00
14370;DHT22;7268;50.792;0.252;2023-07-13T06:45:59;22.80;81.40
14370;DHT22;7268;50.792;0.252;2023-07-13T06:48:26;22.80;81.70
14370;DHT22;7268;50.792;0.252;2023-07-13T06:50:53;23.00;82.90
14370;DHT22;7268;50.792;0.252;2023-07-13T06:53:21;23.10;81.90
14370;DHT22;7268;50.792;0.252;2023-07-13T06:55:49;23.10;82.50
14370;DHT22;7268;50.792;0.252;2023-07-13T06:58:19;23.10;82.50
14370;DHT22;7268;50.792;0.252;2023-07-13T07:00:49;23.90;80.10
14370;DHT22;7268;50.792;0.252;2023-07-13T07:03:16;23.40;82.00
14370;DHT22;7268;50.792;0.252;2023-07-13T07:05:43;23.20;81.10
14370;DHT22;7268;50.792;0.252;2023-07-13T07:08:11;23.20;81.50
14370;DHT22;7268;50.792;0.252;2023-07-13T07:10:38;23.20;81.10
14370;DHT22;7268;50.792;0.252;2023-07-13T07:13:05;22.50;83.60
14370;DHT22;7268;50.792;0.252;2023-07-13T07:15:32;23.00;82.90
14370;DHT22;7268;50.792;0.252;2023-07-13T07:18:00;24.10;78.70
14370;DHT22;7268;50.792;0.252;2023-07-13T07:20:27;23.80;78.80
14370;DHT22;7268;50.792;0.252;2023-07-13T07:22:54;23.30;81.20
14370;DHT22;7268;50.792;0.252;2023-07-13T07:25:21;22.30;82.00
14370;DHT22;7268;50.792;0.252;2023-07-13T07:27:48;21.60;85.20
14370;DHT22;7268;50.792;0.252;2023-07-13T07:30:18;21.20;86.30
14370;DHT22;7268;50.792;0.252;2023-07-13T07:32:48;21.00;87.30
14370;DHT22;7268;50.792;0.252;2023-07-13T07:35:18;20.70;87.30
14370;DHT22;7268;50.792;0.252;2023-07-13T07:37:45;20.00;90.10
14370;DHT22;7268;50.792;0.252;2023-07-13T07:40:15;19.70;90.40
14370;DHT22;7268;50.792;0.252;2023-07-13T07:42:45;19.50;91.20
14370;DHT22;7268;50.792;0.252;2023-07-13T07:45:13;19.40;92.80
14370;DHT22;7268;50.792;0.252;2023-07-13T07:47:40;19.60;93.50
14370;DHT22;7268;50.792;0.252;2023-07-13T07:50:08;19.50;93.70
14370;DHT22;7268;50.792;0.252;2023-07-13T07:52:35;19.50;93.90
14370;DHT22;7268;50.792;0.252;2023-07-13T07:55:05;19.50;93.80
14370;DHT22;7268;50.792;0.252;2023-07-13T07:57:35;19.30;94.70
14370;DHT22;7268;50.792;0.252;2023-07-13T08:00:05;19.10;95.40
14370;DHT22;7268;50.792;0.252;2023-07-13T08:02:35;19.10;95.80
14370;DHT22;7268;50.792;0.252;2023-07-13T08:05:05;19.50;94.80
14370;DHT22;7268;50.792;0.252;2023-07-13T08:07:37;19.70;94.40
14370;DHT22;7268;50.792;0.252;2023-07-13T08:10:06;19.50;94.60
14370;DHT22;7268;50.792;0.252;2023-07-13T08:12:37;19.40;94.50
14370;DHT22;7268;50.792;0.252;2023-07-13T08:15:11;19.10;95.60
14370;DHT22;7268;50.792;0.252;2023-07-13T08:17:39;19.60;95.10
14370;DHT22;7268;50.792;0.252;2023-07-13T08:20:06;19.90;94.20
14370;DHT22;7268;50.792;0.252;2023-07-13T08:22:34;19.80;93.60
14370;DHT22;7268;50.792;0.252;2023-07-13T08:25:02;19.20;95.60
14370;DHT22;7268;50.792;0.252;2023-07-13T08:27:29;18.60;97.20
14370;DHT22;7268;50.792;0.252;2023-07-13T08:29:56;18.20;98.60
14370;DHT22;7268;50.792;0.252;2023-07-13T08:32:23;18.20;99.80
14370;DHT22;7268;50.792;0.252;2023-07-13T08:34:51;18.10;99.90
14370;DHT22;7268;50.792;0.252;2023-07-13T08:37:18;18.20;99.80
14370;DHT22;7268;50.792;0.252;2023-07-13T08:39:46;18.20;99.70
14370;DHT22;7268;50.792;0.252;2023-07-13T08:42:50;18.20;99.50
14370;DHT22;7268;50.792;0.252;2023-07-13T08:45:26;18.10;99.20
14370;DHT22;7268;50.792;0.252;2023-07-13T08:48:01;18.30;99.80
14370;DHT22;7268;50.792;0.252;2023-07-13T08:50:54;18.50;99.50
14370;DHT22;7268;50.792;0.252;2023-07-13T08:53:46;18.60;99.20
14370;DHT22;7268;50.792;0.252;2023-07-13T08:56:20;18.40;99.20
14370;DHT22;7268;50.792;0.252;2023-07-13T08:58:51;18.30;99.30
14370;DHT22;7268;50.792;0.252;2023-07-13T09:01:41;18.60;99.30
14370;DHT22;7268;50.792;0.252;2023-07-13T09:04:25;19.00;97.80
14370;DHT22;7268;50.792;0.252;2023-07-13T09:07:01;19.50;96.20
14370;DHT22;7268;50.792;0.252;2023-07-13T09:15:02;20.30;95.40
14370;DHT22;7268;50.792;0.252;2023-07-13T09:17:41;20.80;94.40
14370;DHT22;7268;50.792;0.252;2023-07-13T09:20:31;20.60;94.30
14370;DHT22;7268;50.792;0.252;2023-07-13T09:23:03;20.60;95.30
14370;DHT22;7268;50.792;0.252;2023-07-13T09:25:34;21.10;93.50
14370;DHT22;7268;50.792;0.252;2023-07-13T09:28:22;20.60;94.00
14370;DHT22;7268;50.792;0.252;2023-07-13T09:31:10;20.80;93.80
14370;DHT22;7268;50.792;0.252;2023-07-13T09:33:40;20.80;93.50
14370;DHT22;7268;50.792;0.252;2023-07-13T09:36:26;20.60;93.40
14370;DHT22;7268;50.792;0.252;2023-07-13T09:42:05;22.30;90.90
14370;DHT22;7268;50.792;0.252;2023-07-13T09:44:36;23.30;90.00
14370;DHT22;7268;50.792;0.252;2023-07-13T09:47:03;24.30;84.20
14370;DHT22;7268;50.792;0.252;2023-07-13T09:49:40;24.70;86.60
14370;DHT22;7268;50.792;0.252;2023-07-13T09:52:12;24.80;83.00
14370;DHT22;7268;50.792;0.252;2023-07-13T09:54:45;25.10;80.70
14370;DHT22;7268;50.792;0.252;2023-07-13T09:57:17;24.90;82.00
14370;DHT22;7268;50.792;0.252;2023-07-13T09:59:49;25.10;81.90
14370;DHT22;7268;50.792;0.252;2023-07-13T10:02:31;24.90;80.20
14370;DHT22;7268;50.792;0.252;2023-07-13T10:05:05;23.70;84.20
14370;DHT22;7268;50.792;0.252;2023-07-13T10:07:35;23.80;84.70
14370;DHT22;7268;50.792;0.252;2023-07-13T10:10:17;23.90;84.70
14370;DHT22;7268;50.792;0.252;2023-07-13T10:12:44;23.20;87.50
14370;DHT22;7268;50.792;0.252;2023-07-13T10:15:15;22.70;89.00
14370;DHT22;7268;50.792;0.252;2023-07-13T10:17:51;23.10;86.50
14370;DHT22;7268;50.792;0.252;2023-07-13T10:20:20;23.70;86.70
14370;DHT22;7268;50.792;0.252;2023-07-13T10:22:58;23.60;84.40
14370;DHT22;7268;50.792;0.252;2023-07-13T10:25:31;23.10;88.40
14370;DHT22;7268;50.792;0.252;2023-07-13T10:28:04;23.30;83.70
14370;DHT22;7268;50.792;0.252;2023-07-13T10:30:43;23.40;86.30
14370;DHT22;7268;50.792;0.252;2023-07-13T10:33:13;24.00;82.30
14370;DHT22;7268;50.792;0.252;2023-07-13T10:35:43;23.70;83.00
14370;DHT22;7268;50.792;0.252;2023-07-13T10:38:13;23.60;85.20
14370;DHT22;7268;50.792;0.252;2023-07-13T10:40:52;22.70;85.60
14370;DHT22;7268;50.792;0.252;2023-07-13T10:43:34;23.10;84.70
14370;DHT22;7268;50.792;0.252;2023-07-13T10:46:05;24.00;84.30
14370;DHT22;7268;50.792;0.252;2023-07-13T10:48:35;24.90;78.90
14370;DHT22;7268;50.792;0.252;2023-07-13T10:51:05;24.20;82.30
14370;DHT22;7268;50.792;0.252;2023-07-13T10:53:38;24.70;81.90
14370;DHT22;7268;50.792;0.252;2023-07-13T10:56:29;23.80;80.60
14370;DHT22;7268;50.792;0.252;2023-07-13T10:59:20;24.10;84.30
14370;DHT22;7268;50.792;0.252;2023-07-13T11:02:11;24.20;81.70
14370;DHT22;7268;50.792;0.252;2023-07-13T11:04:42;25.10;78.70
14370;DHT22;7268;50.792;0.252;2023-07-13T11:07:22;24.90;79.70
14370;DHT22;7268;50.792;0.252;2023-07-13T11:09:52;24.70;79.50
14370;DHT22;7268;50.792;0.252;2023-07-13T11:22:53;25.70;77.70
14370;DHT22;7268;50.792;0.252;2023-07-13T11:25:35;24.50;76.90
14370;DHT22;7268;50.792;0.252;2023-07-13T11:33:22;24.80;77.90
14370;DHT22;7268;50.792;0.252;2023-07-13T11:38:55;25.90;74.00
14370;DHT22;7268;50.792;0.252;2023-07-13T11:41:31;25.10;74.80
14370;DHT22;7268;50.792;0.252;2023-07-13T11:44:16;24.80;79.30
14370;DHT22;7268;50.792;0.252;2023-07-13T11:46:46;24.80;80.40
14370;DHT22;7268;50.792;0.252;2023-07-13T11:49:23;24.60;78.80
14370;DHT22;7268;50.792;0.252;2023-07-13T11:51:51;23.40;82.70
14370;DHT22;7268;50.792;0.252;2023-07-13T11:54:27;23.20;82.50
14370;DHT22;7268;50.792;0.252;2023-07-13T11:57:23;22.90;84.90
14370;DHT22;7268;50.792;0.252;2023-07-13T11:59:44;22.20;86.90
14370;DHT22;7268;50.792;0.252;2023-07-13T12:02:18;21.50;89.00
14370;DHT22;7268;50.792;0.252;2023-07-13T12:04:50;22.20;87.50
14370;DHT22;7268;50.792;0.252;2023-07-13T12:07:19;22.70;87.20
14370;DHT22;7268;50.792;0.252;2023-07-13T12:09:46;22.90;85.70
14370;DHT22;7268;50.792;0.252;2023-07-13T12:12:17;22.90;83.90
14370;DHT22;7268;50.792;0.252;2023-07-13T12:14:45;23.00;84.90
14370;DHT22;7268;50.792;0.252;2023-07-13T12:17:19;22.90;84.30
14370;DHT22;7268;50.792;0.252;2023-07-13T12:19:48;23.10;84.20
14370;DHT22;7268;50.792;0.252;2023-07-13T12:22:17;22.70;86.30
14370;DHT22;7268;50.792;0.252;2023-07-13T12:24:45;22.30;85.20
14370;DHT22;7268;50.792;0.252;2023-07-13T12:27:25;21.90;86.40
14370;DHT22;7268;50.792;0.252;2023-07-13T12:29:58;22.60;87.80
14370;DHT22;7268;50.792;0.252;2023-07-13T12:32:27;23.40;84.30
14370;DHT22;7268;50.792;0.252;2023-07-13T12:35:15;23.10;84.10
14370;DHT22;7268;50.792;0.252;2023-07-13T12:37:43;22.80;84.20
14370;DHT22;7268;50.792;0.252;2023-07-13T12:40:15;22.50;86.70
14370;DHT22;7268;50.792;0.252;2023-07-13T12:42:43;22.80;86.00
14370;DHT22;7268;50.792;0.252;2023-07-13T12:45:27;22.50;86.40
14370;DHT22;7268;50.792;0.252;2023-07-13T12:47:58;21.80;89.80
14370;DHT22;7268;50.792;0.252;2023-07-13T12:50:36;22.50;87.60
14370;DHT22;7268;50.792;0.252;2023-07-13T12:53:05;21.90;88.40
14370;DHT22;7268;50.792;0.252;2023-07-13T12:55:49;21.50;90.10
14370;DHT22;7268;50.792;0.252;2023-07-13T12:58:25;21.40;90.50
14370;DHT22;7268;50.792;0.252;2023-07-13T13:00:55;21.90;89.80
14370;DHT22;7268;50.792;0.252;2023-07-13T13:03:34;22.00;88.50
14370;DHT22;7268;50.792;0.252;2023-07-13T13:08:49;22.10;90.20
14370;DHT22;7268;50.792;0.252;2023-07-13T13:11:18;22.20;87.00
14370;DHT22;7268;50.792;0.252;2023-07-13T13:13:45;21.60;89.80
14370;DHT22;7268;50.792;0.252;2023-07-13T13:16:22;21.10;90.50
14370;DHT22;7268;50.792;0.252;2023-07-13T13:18:50;20.90;90.60
14370;DHT22;7268;50.792;0.252;2023-07-13T13:21:18;21.10;90.90
14370;DHT22;7268;50.792;0.252;2023-07-13T13:23:45;21.30;90.20
14370;DHT22;7268;50.792;0.252;2023-07-13T13:26:16;21.30;90.40
14370;DHT22;7268;50.792;0.252;2023-07-13T13:28:43;21.40;89.60
14370;DHT22;7268;50.792;0.252;2023-07-13T13:31:12;21.30;89.60
14370;DHT22;7268;50.792;0.252;2023-07-13T13:33:42;21.00;90.90
14370;DHT22;7268;50.792;0.252;2023-07-13T13:36:18;20.90;90.40
14370;DHT22;7268;50.792;0.252;2023-07-13T13:38:46;21.00;90.90
14370;DHT22;7268;50.792;0.252;2023-07-13T13:41:13;21.30;90.30
14370;DHT22;7268;50.792;0.252;2023-07-13T13:43:42;21.50;89.80
14370;DHT22;7268;50.792;0.252;2023-07-13T13:46:18;21.80;89.20
14370;DHT22;7268;50.792;0.252;2023-07-13T13:48:45;21.70;88.70
14370;DHT22;7268;50.792;0.252;2023-07-13T13:51:18;21.10;90.30
14370;DHT22;7268;50.792;0.252;2023-07-13T13:53:47;21.10;90.30
14370;DHT22;7268;50.792;0.252;2023-07-13T13:56:15;20.90;90.60
14370;DHT22;7268;50.792;0.252;2023-07-13T13:58:42;21.00;88.00
14370;DHT22;7268;50.792;0.252;2023-07-13T14:01:19;21.40;88.00
14370;DHT22;7268;50.792;0.252;2023-07-13T14:03:47;21.70;84.10
14370;DHT22;7268;50.792;0.252;2023-07-13T14:06:18;21.10;88.00
14370;DHT22;7268;50.792;0.252;2023-07-13T14:08:45;20.90;87.70
14370;DHT22;7268;50.792;0.252;2023-07-13T14:11:15;21.30;85.90
14370;DHT22;7268;50.792;0.252;2023-07-13T14:13:48;20.90;86.40
14370;DHT22;7268;50.792;0.252;2023-07-13T14:16:17;21.00;85.10
14370;DHT22;7268;50.792;0.252;2023-07-13T14:18:45;21.30;85.70
14370;DHT22;7268;50.792;0.252;2023-07-13T14:21:15;21.50;84.80
14370;DHT22;7268;50.792;0.252;2023-07-13T14:23:44;21.90;82.40
14370;DHT22;7268;50.792;0.252;2023-07-13T14:26:20;21.80;81.00
14370;DHT22;7268;50.792;0.252;2023-07-13T14:28:50;21.90;81.20
14370;DHT22;7268;50.792;0.252;2023-07-13T14:31:18;21.80;81.20
14370;DHT22;7268;50.792;0.252;2023-07-13T14:33:45;21.50;82.60
14370;DHT22;7268;50.792;0.252;2023-07-13T14:36:27;21.40;83.70
14370;DHT22;7268;50.792;0.252;2023-07-13T14:39:12;21.50;84.30
14370;DHT22;7268;50.792;0.252;2023-07-13T14:41:39;21.30;83.10
14370;DHT22;7268;50.792;0.252;2023-07-13T14:44:17;21.20;84.50
14370;DHT22;7268;50.792;0.252;2023-07-13T14:46:45;21.00;84.70
14370;DHT22;7268;50.792;0.252;2023-07-13T14:49:35;20.90;85.00
14370;DHT22;7268;50.792;0.252;2023-07-13T14:52:12;20.80;86.80
14370;DHT22;7268;50.792;0.252;2023-07-13T14:54:40;20.70;85.60
14370;DHT22;7268;50.792;0.252;2023-07-13T14:57:14;20.20;89.10
14370;DHT22;7268;50.792;0.252;2023-07-13T14:59:42;19.60;90.30
14370;DHT22;7268;50.792;0.252;2023-07-13T15:02:32;19.50;91.10
14370;DHT22;7268;50.792;0.252;2023-07-13T15:05:00;19.50;91.90
14370;DHT22;7268;50.792;0.252;2023-07-13T15:07:27;19.60;91.90
14370;DHT22;7268;50.792;0.252;2023-07-13T15:09:54;19.40;92.00
14370;DHT22;7268;50.792;0.252;2023-07-13T15:12:21;19.10;93.10
14370;DHT22;7268;50.792;0.252;2023-07-13T15:14:48;19.40;92.50
14370;DHT22;7268;50.792;0.252;2023-07-13T15:17:26;19.90;92.00
14370;DHT22;7268;50.792;0.252;2023-07-13T15:19:55;20.20;91.10
14370;DHT22;7268;50.792;0.252;2023-07-13T15:22:23;20.10;90.10
14370;DHT22;7268;50.792;0.252;2023-07-13T15:24:49;19.80;90.90
14370;DHT22;7268;50.792;0.252;2023-07-13T15:27:16;20.10;90.80
14370;DHT22;7268;50.792;0.252;2023-07-13T15:29:43;19.90;91.10
14370;DHT22;7268;50.792;0.252;2023-07-13T15:32:14;19.90;92.10
14370;DHT22;7268;50.792;0.252;2023-07-13T15:34:41;19.80;91.70
14370;DHT22;7268;50.792;0.252;2023-07-13T15:37:17;19.60;92.10
14370;DHT22;7268;50.792;0.252;2023-07-13T15:39:45;19.80;91.90
14370;DHT22;7268;50.792;0.252;2023-07-13T15:42:18;19.70;92.10
14370;DHT22;7268;50.792;0.252;2023-07-13T15:44:46;20.00;91.70
14370;DHT22;7268;50.792;0.252;2023-07-13T15:47:14;20.40;91.10
14370;DHT22;7268;50.792;0.252;2023-07-13T15:49:42;20.20;91.10
14370;DHT22;7268;50.792;0.252;2023-07-13T15:52:16;19.70;91.70
14370;DHT22;7268;50.792;0.252;2023-07-13T15:54:45;19.50;92.00
14370;DHT22;7268;50.792;0.252;2023-07-13T15:57:11;19.30;92.20
14370;DHT22;7268;50.792;0.252;2023-07-13T15:59:40;19.10;92.90
14370;DHT22;7268;50.792;0.252;2023-07-13T16:02:18;19.10;92.60
14370;DHT22;7268;50.792;0.252;2023-07-13T16:04:46;19.10;92.80
14370;DHT22;7268;50.792;0.252;2023-07-13T16:07:15;19.10;92.10
14370;DHT22;7268;50.792;0.252;2023-07-13T16:09:44;19.00;92.50
14370;DHT22;7268;50.792;0.252;2023-07-13T16:12:15;19.00;92.50
14370;DHT22;7268;50.792;0.252;2023-07-13T16:14:43;19.00;93.10
14370;DHT22;7268;50.792;0.252;2023-07-13T16:17:14;19.10;93.20
14370;DHT22;7268;50.792;0.252;2023-07-13T16:19:41;18.90;93.10
14370;DHT22;7268;50.792;0.252;2023-07-13T16:22:17;18.90;93.40
14370;DHT22;7268;50.792;0.252;2023-07-13T16:24:45;19.00;93.50
14370;DHT22;7268;50.792;0.252;2023-07-13T16:27:12;18.80;93.30
14370;DHT22;7268;50.792;0.252;2023-07-13T16:29:40;18.90;93.20
14370;DHT22;7268;50.792;0.252;2023-07-13T16:32:11;18.70;93.50
14370;DHT22;7268;50.792;0.252;2023-07-13T16:34:41;18.70;93.60
14370;DHT22;7268;50.792;0.252;2023-07-13T16:37:25;18.70;93.80